Terminal Aerodrome Forecast
Issued by NWS Quad Cities IA IL

Home | Current Version | Previous Version | Text Only | Print | Product List | Glossary On
Versions: 1 2 3 4 5 6 7 8 9 10 11 12 13 14 15 16 17 18
000
FTUS43 KDVN 251720
TAFDBQ
TAF
KDBQ 251720Z 2518/2618 06010KT P6SM SCT250
     FM252000 01008KT P6SM SCT250
     FM260200 VRB03KT P6SM SKC
     FM261400 24008KT P6SM SKC=

USA.gov is the U.S. government's official web portal to all federal, state and local government web resources and services.